Time;durP1;ratioP1;P1;durP2;ratioP2;P2;SDS_P1;SDS_P2;PMS_P1;PMS_P2;Temp;Humidity;BMP_temperature;BMP_pressure;BME280_temperature;BME280_humidity;BME280_pressure;Samples;Min_cycle;Max_cycle;Signal;HPM_P1;HPM_P2
2023/04/25 00:00:34;;;;;;;2.95;1.05;;;;;;;-0.50;100.00;101262.19;5035301;28;20129;-77
2023/04/25 00:03:00;;;;;;;1.77;1.42;;;;;;;-0.49;100.00;101264.72;5003114;28;20454;-77
2023/04/25 00:05:26;;;;;;;3.60;1.40;;;;;;;-0.52;100.00;101275.47;5035619;28;20085;-77
2023/04/25 00:07:52;;;;;;;2.83;1.70;;;;;;;-0.61;100.00;101272.53;5019324;28;20086;-77
2023/04/25 00:10:20;;;;;;;1.60;1.17;;;;;;;-0.68;100.00;101277.34;5019454;28;20037;-77
2023/04/25 00:12:47;;;;;;;2.63;1.08;;;;;;;-0.61;100.00;101273.38;5051807;28;20036;-77
2023/04/25 00:15:15;;;;;;;1.63;1.08;;;;;;;-0.57;100.00;101274.06;5051754;28;20043;-75
2023/04/25 00:17:46;;;;;;;1.27;1.10;;;;;;;-0.63;100.00;101275.28;5036078;28;20040;-76
2023/04/25 00:20:12;;;;;;;1.60;1.38;;;;;;;-0.65;100.00;101281.59;5035367;28;20032;-76
2023/04/25 00:22:38;;;;;;;1.52;1.23;;;;;;;-0.70;100.00;101279.22;5037670;28;20029;-76
2023/04/25 00:25:10;;;;;;;2.22;1.13;;;;;;;-0.71;100.00;101278.38;5055699;28;20037;-76
2023/04/25 00:27:35;;;;;;;1.38;1.20;;;;;;;-0.64;100.00;101285.91;5023409;28;20029;-77
2023/04/25 00:30:04;;;;;;;2.97;1.20;;;;;;;-0.53;100.00;101296.69;5039500;28;20516;-75
2023/04/25 00:32:35;;;;;;;2.17;1.40;;;;;;;-0.55;100.00;101291.53;5024073;28;20055;-75
2023/04/25 00:35:00;;;;;;;2.63;1.55;;;;;;;-0.68;100.00;101293.19;5022555;28;20028;-77
2023/04/25 00:37:28;;;;;;;2.03;1.30;;;;;;;-0.77;100.00;101281.34;5022155;28;20033;-77
2023/04/25 00:39:55;;;;;;;1.70;1.30;;;;;;;-0.80;100.00;101280.69;5056011;28;20068;-77
2023/04/25 00:42:21;;;;;;;1.80;1.30;;;;;;;-0.85;100.00;101270.38;5039460;28;20044;-77
2023/04/25 00:44:47;;;;;;;1.80;1.48;;;;;;;-0.82;100.00;101266.72;5022651;28;20025;-76
2023/04/25 00:47:15;;;;;;;0.73;0.73;;;;;;;-0.77;100.00;101269.94;5038949;28;20036;-75
2023/04/25 00:49:42;;;;;;;2.05;1.38;;;;;;;-0.64;100.00;101275.34;5055169;28;20028;-76
2023/04/25 00:52:09;;;;;;;2.88;1.80;;;;;;;-0.56;100.00;101281.88;5022833;28;20110;-76
2023/04/25 00:54:35;;;;;;;1.52;1.20;;;;;;;-0.66;100.00;101270.19;5039255;28;20032;-77
2023/04/25 00:57:03;;;;;;;2.10;1.30;;;;;;;-0.82;100.00;101262.31;5022263;28;20395;-77
2023/04/25 00:59:30;;;;;;;1.35;0.88;;;;;;;-0.89;100.00;101264.44;5022442;28;20036;-76
2023/04/25 01:01:56;;;;;;;2.38;1.33;;;;;;;-0.86;100.00;101276.63;5038851;28;20029;-78
2023/04/25 01:04:22;;;;;;;1.60;1.50;;;;;;;-0.93;100.00;101270.88;5005899;28;20064;-76
2023/04/25 01:06:50;;;;;;;1.52;1.30;;;;;;;-1.08;100.00;101250.63;5039161;28;20025;-77
2023/04/25 01:09:16;;;;;;;1.65;1.27;;;;;;;-1.00;100.00;101272.16;5038350;28;20033;-76
2023/04/25 01:11:41;;;;;;;2.08;1.52;;;;;;;-0.99;100.00;101271.19;5054708;28;20028;-75
2023/04/25 01:14:07;;;;;;;1.67;1.55;;;;;;;-1.07;100.00;101262.88;5021903;28;20044;-75
2023/04/25 01:16:33;;;;;;;1.42;1.33;;;;;;;-1.14;100.00;101250.97;5022272;28;20033;-75
2023/04/25 01:18:59;;;;;;;1.88;1.35;;;;;;;-1.11;100.00;101274.56;5022234;28;20029;-75
2023/04/25 01:21:27;;;;;;;2.75;1.35;;;;;;;-1.25;100.00;101261.28;5022073;28;20087;-77
2023/04/25 01:23:54;;;;;;;1.75;1.42;;;;;;;-1.33;100.00;101273.13;5054659;28;20040;-75
2023/04/25 01:26:21;;;;;;;1.60;1.20;;;;;;;-1.19;100.00;101284.69;5022095;28;20032;-75
2023/04/25 01:28:52;;;;;;;1.88;1.20;;;;;;;-1.24;100.00;101276.22;5022133;28;20178;-76
2023/04/25 01:31:22;;;;;;;2.25;1.50;;;;;;;-1.30;100.00;101276.53;5021875;28;20521;-79
2023/04/25 01:33:53;;;;;;;2.28;1.30;;;;;;;-1.47;100.00;101265.16;5038233;28;20064;-75
2023/04/25 01:36:22;;;;;;;3.13;1.60;;;;;;;-1.42;100.00;101278.09;5021227;28;20033;-75
2023/04/25 01:38:48;;;;;;;1.35;1.13;;;;;;;-1.46;100.00;101281.81;5021219;28;20475;-77
2023/04/25 01:41:14;;;;;;;3.38;1.58;;;;;;;-1.55;100.00;101275.28;5038155;28;20028;-76
2023/04/25 01:43:40;;;;;;;2.40;1.52;;;;;;;-1.59;100.00;101277.25;5021842;28;20047;-75
2023/04/25 01:46:09;;;;;;;1.95;1.70;;;;;;;-1.61;100.00;101270.34;5021344;28;20669;-75
2023/04/25 01:48:35;;;;;;;1.60;1.15;;;;;;;-1.64;100.00;101268.75;5038119;28;20048;-76
2023/04/25 01:51:03;;;;;;;1.58;1.10;;;;;;;-1.62;100.00;101271.28;5021714;28;20033;-74
2023/04/25 01:53:31;;;;;;;2.78;1.77;;;;;;;-1.59;100.00;101268.47;5038006;28;20033;-75
2023/04/25 01:55:57;;;;;;;3.03;1.45;;;;;;;-1.63;100.00;101270.44;5021384;28;20390;-77
2023/04/25 01:58:23;;;;;;;3.08;1.60;;;;;;;-1.64;100.00;101271.38;5037573;28;20468;-76
2023/04/25 02:00:53;;;;;;;1.90;1.48;;;;;;;-1.61;100.00;101275.63;5020762;28;20028;-75
2023/04/25 02:03:19;;;;;;;1.98;1.45;;;;;;;-1.65;100.00;101271.44;5021311;28;20107;-75
2023/04/25 02:05:44;;;;;;;1.67;1.20;;;;;;;-1.65;100.00;101266.19;5021430;28;20426;-76
2023/04/25 02:08:10;;;;;;;2.00;1.40;;;;;;;-1.64;100.00;101278.41;5020932;28;20044;-75
2023/04/25 02:10:36;;;;;;;3.70;1.63;;;;;;;-1.74;100.00;101261.44;5021108;28;20040;-75
2023/04/25 02:13:02;;;;;;;4.07;1.55;;;;;;;-1.78;100.00;101268.63;5020784;28;20116;-78
2023/04/25 02:15:31;;;;;;;2.95;1.52;;;;;;;-1.85;100.00;101269.91;5021101;28;20091;-75
2023/04/25 02:18:00;;;;;;;4.68;1.33;;;;;;;-1.86;100.00;101273.47;5037715;28;20596;-77
2023/04/25 02:20:26;;;;;;;1.40;1.30;;;;;;;-1.85;100.00;101272.56;5053817;28;20059;-78
2023/04/25 02:22:54;;;;;;;1.73;1.17;;;;;;;-1.75;100.00;101275.53;5021540;28;20493;-74
2023/04/25 02:25:20;;;;;;;1.83;1.10;;;;;;;-1.70;100.00;101274.34;5037114;28;20514;-76
2023/04/25 02:27:47;;;;;;;2.13;1.77;;;;;;;-1.72;100.00;101262.16;5053800;28;20083;-75
2023/04/25 02:30:13;;;;;;;1.10;1.00;;;;;;;-1.62;100.00;101271.28;5037085;28;20040;-76
2023/04/25 02:32:40;;;;;;;3.30;1.58;;;;;;;-1.60;100.00;101272.88;5020716;28;20394;-77
2023/04/25 02:35:06;;;;;;;1.88;1.27;;;;;;;-1.59;100.00;101274.63;5037102;28;20040;-76
2023/04/25 02:37:37;;;;;;;3.20;1.67;;;;;;;-1.65;100.00;101271.44;5053523;28;20095;-76
2023/04/25 02:40:04;;;;;;;2.17;1.42;;;;;;;-1.64;100.00;101267.88;5052820;28;20037;-78
2023/04/25 02:42:30;;;;;;;2.38;1.40;;;;;;;-1.65;100.00;101271.44;5053661;28;20025;-77
2023/04/25 02:44:56;;;;;;;2.42;1.42;;;;;;;-1.62;100.00;101279.19;5019760;28;20154;-79
2023/04/25 02:47:22;;;;;;;2.17;1.50;;;;;;;-1.67;100.00;101274.16;5069005;28;20029;-76
2023/04/25 02:49:50;;;;;;;1.60;1.38;;;;;;;-1.71;100.00;101270.00;5036832;28;20048;-77
2023/04/25 02:52:15;;;;;;;4.30;1.30;;;;;;;-1.65;100.00;101274.09;5037346;28;20119;-77
2023/04/25 02:54:41;;;;;;;2.70;1.30;;;;;;;-1.63;100.00;101266.94;5019793;28;20115;-76
2023/04/25 02:57:07;;;;;;;3.40;1.33;;;;;;;-1.66;100.00;101264.47;5020233;28;20468;-77
2023/04/25 02:59:33;;;;;;;1.77;1.23;;;;;;;-1.77;100.00;101255.38;5020202;28;20040;-78
2023/04/25 03:01:59;;;;;;;3.83;2.00;;;;;;;-1.82;100.00;101270.59;5003295;28;20041;-77
2023/04/25 03:04:27;;;;;;;1.73;1.45;;;;;;;-1.82;100.00;101265.31;5020462;28;20170;-77
2023/04/25 03:06:53;;;;;;;1.67;1.20;;;;;;;-1.87;100.00;101271.78;5020624;28;20041;-79
2023/04/25 03:09:19;;;;;;;1.83;1.33;;;;;;;-1.93;100.00;101278.25;5053408;28;20506;-76
2023/04/25 03:11:45;;;;;;;1.70;1.33;;;;;;;-1.98;100.00;101267.09;5053043;28;20029;-78
2023/04/25 03:14:15;;;;;;;2.30;1.60;;;;;;;-1.98;100.00;101280.28;5053047;28;20488;-76
2023/04/25 03:16:41;;;;;;;2.75;1.70;;;;;;;-1.95;100.00;101276.63;5052254;28;20039;-74
2023/04/25 03:19:09;;;;;;;1.50;1.40;;;;;;;-1.90;100.00;101277.22;5052526;28;20029;-76
2023/04/25 03:21:35;;;;;;;1.08;0.88;;;;;;;-1.87;100.00;101279.69;5052883;28;20094;-75
2023/04/25 03:24:03;;;;;;;0.75;0.75;;;;;;;-1.62;100.00;101273.91;5019130;28;20505;-77
2023/04/25 03:26:31;;;;;;;3.22;1.40;;;;;;;-1.54;100.00;101274.34;5036322;28;20087;-78
2023/04/25 03:28:56;;;;;;;1.42;1.33;;;;;;;-1.56;100.00;101271.81;5019324;28;20135;-76
2023/04/25 03:31:22;;;;;;;5.15;1.75;;;;;;;-1.61;100.00;101276.47;5019403;28;20029;-75
2023/04/25 03:33:48;;;;;;;5.57;1.42;;;;;;;-1.67;100.00;101268.03;5019814;28;20033;-77
2023/04/25 03:36:16;;;;;;;3.60;1.92;;;;;;;-1.64;100.00;101273.13;5019182;28;20471;-77
2023/04/25 03:38:48;;;;;;;2.92;1.60;;;;;;;-1.68;100.00;101261.06;5051875;28;20037;-76
2023/04/25 03:41:14;;;;;;;3.00;1.90;;;;;;;-1.57;100.00;101271.88;5036394;28;20059;-78
2023/04/25 03:43:39;;;;;;;2.28;1.65;;;;;;;-1.56;100.00;101269.16;5019420;28;20534;-77
2023/04/25 03:46:05;;;;;;;2.03;1.63;;;;;;;-1.60;100.00;101269.41;5019522;28;20159;-80
2023/04/25 03:48:33;;;;;;;2.45;1.77;;;;;;;-1.65;100.00;101269.66;5051866;28;20064;-78
2023/04/25 03:51:02;;;;;;;1.30;1.13;;;;;;;-1.67;100.00;101268.03;5035956;28;20076;-75
2023/04/25 03:53:29;;;;;;;2.95;1.60;;;;;;;-1.74;100.00;101262.28;5019873;28;20041;-76
2023/04/25 03:55:55;;;;;;;2.55;1.80;;;;;;;-1.80;100.00;101271.38;5051405;28;20041;-75
2023/04/25 03:58:22;;;;;;;4.60;1.58;;;;;;;-1.94;100.00;101257.22;5019156;28;20379;-76
2023/04/25 04:00:51;;;;;;;6.35;1.77;;;;;;;-2.00;100.00;101264.53;5019260;28;20235;-77
2023/04/25 04:03:17;;;;;;;3.85;2.05;;;;;;;-2.09;100.00;101254.50;5052450;28;20060;-76
2023/04/25 04:05:49;;;;;;;4.10;2.50;;;;;;;-2.10;100.00;101268.59;5036310;28;20037;-75
2023/04/25 04:08:17;;;;;;;2.30;1.55;;;;;;;-2.17;100.00;101259.31;5051693;28;20472;-75
2023/04/25 04:10:48;;;;;;;2.25;1.77;;;;;;;-2.24;100.00;101269.31;5036520;28;20025;-77
2023/04/25 04:13:16;;;;;;;3.13;1.83;;;;;;;-2.33;100.00;101255.78;5019365;28;20060;-76
2023/04/25 04:15:42;;;;;;;4.05;1.98;;;;;;;-2.39;100.00;101262.22;5019074;28;20033;-76
2023/04/25 04:18:07;;;;;;;2.80;1.67;;;;;;;-2.40;100.00;101257.91;5019394;28;20390;-75
2023/04/25 04:20:33;;;;;;;4.30;2.20;;;;;;;-2.33;100.00;101264.56;5019000;28;20029;-75
2023/04/25 04:22:59;;;;;;;2.67;2.03;;;;;;;-2.37;100.00;101256.88;5051341;28;20138;-74
2023/04/25 04:25:28;;;;;;;3.95;2.20;;;;;;;-2.44;100.00;101256.34;5018610;28;20045;-74
2023/04/25 04:27:58;;;;;;;3.15;2.42;;;;;;;-2.46;100.00;101260.84;5018770;28;20040;-76
2023/04/25 04:30:30;;;;;;;4.65;2.25;;;;;;;-2.49;100.00;101264.50;5035220;28;20033;-77
2023/04/25 04:32:57;;;;;;;3.20;1.88;;;;;;;-2.49;100.00;101253.09;5035840;28;20534;-74
2023/04/25 04:35:27;;;;;;;1.75;1.60;;;;;;;-2.45;100.00;101257.28;5035041;28;20029;-75
2023/04/25 04:37:53;;;;;;;4.05;2.05;;;;;;;-2.42;100.00;101259.75;5017845;28;20064;-76
2023/04/25 04:40:20;;;;;;;2.95;2.05;;;;;;;-2.44;100.00;101267.72;5018902;28;20163;-77
2023/04/25 04:42:46;;;;;;;4.07;1.90;;;;;;;-2.44;100.00;101257.19;5019192;28;20037;-74
2023/04/25 04:45:12;;;;;;;2.80;1.92;;;;;;;-2.49;100.00;101259.25;5018334;28;20048;-75
2023/04/25 04:47:39;;;;;;;3.22;1.90;;;;;;;-2.50;100.00;101261.94;5018961;28;20472;-75
2023/04/25 04:50:09;;;;;;;1.85;1.55;;;;;;;-2.55;100.00;101259.53;5019892;28;20044;-75
2023/04/25 04:52:35;;;;;;;3.03;2.10;;;;;;;-2.50;100.00;101259.31;5035008;28;20120;-75
2023/04/25 04:55:04;;;;;;;4.90;2.10;;;;;;;-2.46;100.00;101266.97;5018526;28;20037;-76
2023/04/25 04:57:32;;;;;;;2.22;1.73;;;;;;;-2.40;100.00;101260.53;5035111;28;20041;-76
2023/04/25 05:00:00;;;;;;;3.50;1.73;;;;;;;-2.38;100.00;101249.91;5035398;28;20029;-76
2023/04/25 05:02:28;;;;;;;0.90;0.90;;;;;;;-2.23;100.00;101259.63;5018902;28;20487;-76
2023/04/25 05:04:57;;;;;;;3.22;2.10;;;;;;;-2.19;100.00;101255.06;5018435;28;20037;-75
2023/04/25 05:07:25;;;;;;;4.10;2.15;;;;;;;-2.24;100.00;101258.78;5019322;28;20037;-77
2023/04/25 05:09:50;;;;;;;2.65;1.92;;;;;;;-2.34;100.00;101249.66;5053997;28;20033;-74
2023/04/25 05:12:18;;;;;;;4.35;1.60;;;;;;;-2.32;100.00;101253.06;5022225;28;20422;-76
2023/04/25 05:14:44;;;;;;;5.05;2.20;;;;;;;-2.28;100.00;101245.84;5022331;28;20029;-75
2023/04/25 05:17:10;;;;;;;2.97;2.08;;;;;;;-2.23;100.00;101242.03;5022257;28;20098;-75
2023/04/25 05:19:37;;;;;;;5.18;2.17;;;;;;;-2.23;100.00;101239.41;5021747;28;20029;-75
2023/04/25 05:22:05;;;;;;;3.17;2.45;;;;;;;-2.26;100.00;101233.47;5022479;28;20044;-75
2023/04/25 05:24:31;;;;;;;4.32;2.58;;;;;;;-2.26;100.00;101252.75;5022418;28;20430;-74
2023/04/25 05:26:57;;;;;;;3.08;2.47;;;;;;;-2.33;100.00;101240.84;5021573;28;20486;-76
2023/04/25 05:29:22;;;;;;;3.42;1.95;;;;;;;-2.30;100.00;101245.94;5038292;28;20037;-75
2023/04/25 05:31:48;;;;;;;3.63;2.45;;;;;;;-2.24;100.00;101248.25;5022055;28;20090;-77
2023/04/25 05:34:16;;;;;;;4.78;2.38;;;;;;;-2.10;100.00;101239.59;5038288;28;20036;-76
2023/04/25 05:36:44;;;;;;;3.58;1.75;;;;;;;-1.88;100.00;101238.44;5038587;28;20111;-76
2023/04/25 05:39:13;;;;;;;3.88;1.50;;;;;;;-1.53;100.00;101239.13;5021915;28;20027;-74
2023/04/25 05:41:39;;;;;;;2.38;2.00;;;;;;;-0.92;100.00;101234.75;5054369;28;20573;-75
2023/04/25 05:44:05;;;;;;;7.25;1.67;;;;;;;-0.31;100.00;101230.22;5054394;28;20087;-75
2023/04/25 05:46:32;;;;;;;4.60;2.42;;;;;;;0.21;100.00;101230.47;5021705;28;20056;-75
2023/04/25 05:49:00;;;;;;;1.25;1.15;;;;;;;0.40;100.00;101230.13;5038218;28;20041;-76
2023/04/25 05:51:29;;;;;;;3.60;2.58;;;;;;;0.40;100.00;101227.47;5019627;28;20102;-76
2023/04/25 05:53:55;;;;;;;1.60;1.50;;;;;;;0.34;100.00;101235.78;5053996;28;20087;-75
2023/04/25 05:56:23;;;;;;;3.15;2.42;;;;;;;0.32;100.00;101235.06;5021213;28;20036;-75
2023/04/25 05:58:49;;;;;;;3.72;2.20;;;;;;;0.39;100.00;101233.69;5020878;28;20041;-76
2023/04/25 06:01:14;;;;;;;1.35;1.25;;;;;;;0.55;100.00;101233.56;5037286;28;20094;-77
2023/04/25 06:03:44;;;;;;;1.17;1.00;;;;;;;0.61;100.00;101225.25;5021643;28;20057;-76
2023/04/25 06:06:14;;;;;;;2.40;1.75;;;;;;;0.62;100.00;101224.28;5037744;28;20044;-76
2023/04/25 06:08:42;;;;;;;2.22;2.00;;;;;;;0.69;100.00;101227.38;5021168;28;20098;-77
2023/04/25 06:11:08;;;;;;;3.40;1.42;;;;;;;0.79;100.00;101223.16;5055125;28;20025;-77
2023/04/25 06:13:34;;;;;;;1.77;1.38;;;;;;;1.01;100.00;101225.25;5037640;28;20033;-75
2023/04/25 06:15:59;;;;;;;1.23;1.05;;;;;;;1.22;100.00;101220.31;5037254;28;20029;-76
2023/04/25 06:18:25;;;;;;;4.50;2.03;;;;;;;1.55;100.00;101218.94;5021158;28;20379;-75
2023/04/25 06:20:53;;;;;;;3.55;1.83;;;;;;;1.66;100.00;101212.88;5020656;28;20024;-77
2023/04/25 06:23:19;;;;;;;3.05;2.00;;;;;;;1.61;100.00;101189.34;5020921;28;20091;-76
2023/04/25 06:25:45;;;;;;;5.15;2.25;;;;;;;1.90;100.00;101200.53;5053873;28;20405;-76
2023/04/25 06:28:11;;;;;;;3.65;2.28;;;;;;;2.05;100.00;101208.38;5054897;28;20040;-76
2023/04/25 06:30:36;;;;;;;2.28;1.88;;;;;;;2.37;100.00;101216.66;5020728;28;20033;-75
2023/04/25 06:33:02;;;;;;;2.25;1.67;;;;;;;2.81;100.00;101215.22;5020522;28;20057;-77
2023/04/25 06:35:28;;;;;;;1.33;1.23;;;;;;;2.98;100.00;101214.78;5037171;28;20033;-74
2023/04/25 06:37:53;;;;;;;3.08;1.67;;;;;;;3.01;100.00;101209.22;5053573;28;20039;-75
2023/04/25 06:40:20;;;;;;;2.78;1.40;;;;;;;2.97;100.00;101202.47;5020290;28;20451;-75
2023/04/25 06:42:46;;;;;;;3.17;1.58;;;;;;;3.03;100.00;101203.81;5020670;28;20037;-77
2023/04/25 06:45:12;;;;;;;2.33;1.60;;;;;;;2.95;100.00;101204.38;5020601;28;20037;-75
2023/04/25 06:47:37;;;;;;;4.93;1.80;;;;;;;3.04;100.00;101206.38;5053229;28;20062;-77
2023/04/25 06:50:04;;;;;;;5.47;1.63;;;;;;;3.41;100.00;101210.66;5020167;28;20121;-77
2023/04/25 06:52:30;;;;;;;2.25;1.85;;;;;;;4.05;100.00;101199.44;5036625;28;20025;-75
2023/04/25 06:54:56;;;;;;;2.85;1.95;;;;;;;4.67;100.00;101204.13;5036677;28;20399;-78
2023/04/25 06:57:21;;;;;;;4.55;2.78;;;;;;;4.56;100.00;101198.84;5036645;28;20112;-75
2023/04/25 06:59:50;;;;;;;2.28;1.50;;;;;;;4.90;100.00;101206.72;5036538;28;20033;-76
2023/04/25 07:02:15;;;;;;;2.47;2.17;;;;;;;5.51;100.00;101209.53;5053037;28;20414;-75
2023/04/25 07:04:41;;;;;;;3.92;1.80;;;;;;;5.92;100.00;101197.91;5036152;28;20033;-77
2023/04/25 07:07:07;;;;;;;2.90;2.67;;;;;;;6.80;100.00;101206.13;5020178;28;20463;-80
2023/04/25 07:09:33;;;;;;;3.63;2.25;;;;;;;8.31;94.08;101206.16;5020135;28;20044;-78
2023/04/25 07:12:01;;;;;;;2.75;2.35;;;;;;;9.44;86.58;101207.34;5052468;28;20036;-78
2023/04/25 07:14:27;;;;;;;5.00;2.20;;;;;;;10.35;80.54;101201.47;5052867;28;20033;-78
2023/04/25 07:16:53;;;;;;;2.20;1.92;;;;;;;10.98;76.25;101216.19;5019445;28;20509;-78
2023/04/25 07:19:21;;;;;;;3.72;2.72;;;;;;;11.20;73.02;101204.75;5019342;28;20041;-79
2023/04/25 07:21:46;;;;;;;3.90;2.15;;;;;;;11.50;69.47;101220.38;5019307;28;20368;-79
2023/04/25 07:24:12;;;;;;;2.78;2.20;;;;;;;11.68;69.13;101217.50;5035756;28;20028;-77
2023/04/25 07:26:38;;;;;;;2.92;2.00;;;;;;;11.93;65.67;101207.50;5019199;28;20044;-76
2023/04/25 07:29:05;;;;;;;3.40;2.20;;;;;;;12.30;66.31;101215.81;5035614;28;20071;-79
2023/04/25 07:31:31;;;;;;;3.83;2.53;;;;;;;12.41;62.22;101213.69;5052034;28;20033;-77
2023/04/25 07:34:00;;;;;;;4.38;2.58;;;;;;;12.54;64.36;101205.88;5035688;28;20468;-78
2023/04/25 07:36:26;;;;;;;3.40;2.20;;;;;;;12.85;60.07;101211.25;5019260;28;20383;-77
2023/04/25 07:38:51;;;;;;;4.22;2.75;;;;;;;12.96;58.64;101210.81;5019360;28;20443;-77
2023/04/25 07:41:17;;;;;;;3.80;2.55;;;;;;;12.98;59.38;101207.94;5019530;28;20154;-77
2023/04/25 07:43:45;;;;;;;4.50;2.83;;;;;;;13.32;57.39;101214.78;5035795;28;20033;-76
2023/04/25 07:46:11;;;;;;;6.75;3.28;;;;;;;13.62;56.29;101207.56;5019264;28;20110;-77
2023/04/25 07:48:37;;;;;;;3.70;2.17;;;;;;;13.81;57.23;101223.25;5019348;28;20095;-76
2023/04/25 07:51:04;;;;;;;3.95;2.35;;;;;;;13.75;55.18;101209.63;5019672;28;20048;-79
2023/04/25 07:53:30;;;;;;;5.03;2.35;;;;;;;13.94;53.97;101213.63;5051780;28;20044;-77
2023/04/25 07:55:56;;;;;;;3.00;2.65;;;;;;;14.06;51.57;101220.25;5052196;28;20041;-78
2023/04/25 07:58:21;;;;;;;3.47;2.40;;;;;;;13.93;51.86;101212.78;5035150;28;20051;-77
2023/04/25 08:00:48;;;;;;;3.25;2.20;;;;;;;14.16;53.19;101219.97;5035530;28;20025;-78
2023/04/25 08:03:15;;;;;;;4.05;1.73;;;;;;;14.46;52.81;101229.72;5035429;28;20025;-76
2023/04/25 08:05:40;;;;;;;5.95;2.38;;;;;;;14.70;49.28;101231.25;5035203;28;20033;-78
2023/04/25 08:08:06;;;;;;;5.65;2.20;;;;;;;14.92;52.86;101233.97;5019312;28;20041;-76
2023/04/25 08:10:33;;;;;;;4.25;2.90;;;;;;;15.44;46.80;101231.97;5018712;28;20036;-78
2023/04/25 08:12:59;;;;;;;4.35;2.67;;;;;;;15.18;47.62;101222.56;5019175;28;20039;-77
2023/04/25 08:15:26;;;;;;;4.53;2.40;;;;;;;15.26;49.89;101230.56;5019299;28;20379;-77
2023/04/25 08:17:51;;;;;;;5.05;2.65;;;;;;;15.78;52.34;101239.34;5035796;28;20029;-77
2023/04/25 08:20:17;;;;;;;5.88;3.63;;;;;;;16.83;51.63;101240.03;5019002;28;20036;-77
2023/04/25 08:22:43;;;;;;;4.50;2.75;;;;;;;16.28;46.83;101237.31;5035456;28;20032;-77
2023/04/25 08:25:08;;;;;;;5.65;2.60;;;;;;;16.70;49.23;101238.13;5019126;28;20064;-77
2023/04/25 08:27:34;;;;;;;2.45;2.17;;;;;;;17.04;44.04;101233.59;5019312;28;20099;-78
2023/04/25 08:30:02;;;;;;;2.80;2.08;;;;;;;17.35;45.15;101241.97;5035670;28;20117;-77
2023/04/25 08:32:30;;;;;;;7.18;2.75;;;;;;;17.53;46.76;101235.91;5052046;28;20537;-78
2023/04/25 08:34:56;;;;;;;3.58;2.40;;;;;;;18.13;43.12;101237.75;5019172;28;20470;-77
2023/04/25 08:37:24;;;;;;;4.40;2.47;;;;;;;18.21;42.86;101232.88;5051304;28;20043;-77
2023/04/25 08:39:52;;;;;;;2.60;2.15;;;;;;;18.54;42.15;101239.25;5035640;28;20040;-78
2023/04/25 08:42:17;;;;;;;3.65;2.17;;;;;;;18.64;42.54;101235.00;5035036;28;20043;-77
2023/04/25 08:44:45;;;;;;;4.68;2.72;;;;;;;19.36;44.04;101242.09;5021529;28;20025;-78
2023/04/25 08:47:11;;;;;;;4.50;2.90;;;;;;;20.14;37.98;101242.44;5038941;28;20060;-78
2023/04/25 08:49:41;;;;;;;3.75;2.35;;;;;;;19.06;38.06;101231.84;5021290;28;20420;-80
2023/04/25 08:52:10;;;;;;;4.55;2.42;;;;;;;17.87;40.68;101220.44;5022597;28;20098;-78
2023/04/25 08:54:37;;;;;;;6.90;2.97;;;;;;;18.61;41.88;101234.63;5055136;28;20120;-78
2023/04/25 08:57:03;;;;;;;4.18;2.03;;;;;;;18.44;37.45;101234.25;5021611;28;20135;-82
2023/04/25 08:59:32;;;;;;;3.72;2.47;;;;;;;18.81;39.96;101242.69;5037396;28;20087;-82
2023/04/25 09:01:58;;;;;;;6.60;2.80;;;;;;;19.36;37.90;101242.09;5054849;28;20506;-81
2023/04/25 09:04:26;;;;;;;5.57;2.50;;;;;;;19.90;39.01;101246.88;5022124;28;20034;-78
2023/04/25 09:06:52;;;;;;;3.22;2.03;;;;;;;20.14;35.56;101238.88;5056503;28;20095;-79
2023/04/25 09:09:17;;;;;;;4.22;2.40;;;;;;;18.05;37.60;101241.53;5056451;28;20037;-82
2023/04/25 09:11:43;;;;;;;3.45;2.25;;;;;;;15.56;41.94;101244.78;5056268;28;20075;-79
2023/04/25 09:14:12;;;;;;;2.38;1.75;;;;;;;16.66;43.34;101253.13;5038923;28;20037;-81
2023/04/25 09:16:56;;;;;;;4.80;2.22;;;;;;;14.70;43.62;101239.38;5038509;28;20031;-80
2023/04/25 09:19:33;;;;;;;3.60;2.78;;;;;;;15.48;45.89;101242.22;5056679;28;20098;-81
2023/04/25 09:22:00;;;;;;;4.32;2.20;;;;;;;15.87;42.28;101226.44;5055291;28;20032;-82
2023/04/25 09:24:35;;;;;;;5.38;2.47;;;;;;;15.10;46.83;101241.66;5022223;28;20068;-81
2023/04/25 09:27:05;;;;;;;3.00;2.70;;;;;;;14.44;47.63;101231.75;5055320;28;20032;-77
2023/04/25 09:29:33;;;;;;;4.15;2.28;;;;;;;17.14;41.81;101239.47;5038447;28;20163;-80
2023/04/25 09:32:17;;;;;;;3.35;2.20;;;;;;;16.36;40.54;101229.00;5056260;28;20064;-80
2023/04/25 09:34:50;;;;;;;6.18;2.65;;;;;;;16.63;40.69;101238.06;5038505;28;20061;-81
2023/04/25 09:37:28;;;;;;;;;;;;;;;17.82;40.16;101233.84;5022629;28;20380;-84
2023/04/25 09:40:01;;;;;;;3.67;2.40;;;;;;;15.00;43.02;101231.16;5071493;28;20003;-81
2023/04/25 09:42:28;;;;;;;1.67;1.50;;;;;;;16.73;42.81;101236.88;5056082;28;20025;-79
2023/04/25 09:44:55;;;;;;;3.30;2.05;;;;;;;16.60;42.17;101226.81;5038357;28;20353;-77
2023/04/25 09:47:23;;;;;;;4.05;2.47;;;;;;;15.46;42.55;101229.91;5038133;28;20511;-78
2023/04/25 09:49:50;;;;;;;3.55;2.50;;;;;;;17.67;39.74;101227.75;5038278;28;20036;-80
2023/04/25 09:52:20;;;;;;;2.60;2.03;;;;;;;17.43;39.48;101226.50;5038059;28;20029;-82
2023/04/25 09:54:47;;;;;;;3.30;2.30;;;;;;;16.87;39.80;101195.13;5037523;28;20048;-82
2023/04/25 09:57:19;;;;;;;5.53;2.03;;;;;;;16.92;38.96;101212.47;5054708;28;20098;-78
2023/04/25 09:59:47;;;;;;;2.75;2.45;;;;;;;16.85;39.78;101218.94;5037915;28;20032;-81
2023/04/25 10:02:21;;;;;;;3.75;2.33;;;;;;;18.68;37.34;101219.91;5054080;28;20022;-79
2023/04/25 10:04:52;;;;;;;2.63;1.65;;;;;;;19.11;34.10;101208.31;5021281;28;20537;-81
2023/04/25 10:07:18;;;;;;;2.28;1.70;;;;;;;17.28;36.91;101211.28;5038007;28;20387;-79
2023/04/25 10:09:47;;;;;;;6.10;2.30;;;;;;;18.88;37.01;101206.19;5005215;28;20041;-78
2023/04/25 10:12:13;;;;;;;3.03;2.05;;;;;;;20.31;32.10;101209.88;5005133;28;20040;-78
2023/04/25 10:14:39;;;;;;;2.25;1.75;;;;;;;20.26;31.89;101198.78;5037310;28;20243;-78
2023/04/25 10:17:05;;;;;;;4.70;1.85;;;;;;;21.51;31.03;101208.13;5021148;28;20025;-78
2023/04/25 10:19:32;;;;;;;3.97;2.00;;;;;;;22.04;29.54;101198.91;5054053;28;20040;-79
2023/04/25 10:22:19;;;;;;;3.00;1.80;;;;;;;22.50;28.42;101204.53;5037602;28;20108;-82
2023/04/25 10:24:46;;;;;;;4.55;1.75;;;;;;;22.42;30.03;101196.69;5037324;28;20029;-76
2023/04/25 10:27:12;;;;;;;2.00;1.42;;;;;;;19.40;32.00;101191.53;5020665;28;20033;-85
2023/04/25 10:29:38;;;;;;;4.43;1.98;;;;;;;21.24;31.36;101203.06;5037481;28;20037;-79
2023/04/25 10:32:04;;;;;;;2.22;1.45;;;;;;;21.84;29.19;101193.00;5052618;28;20029;-78
2023/04/25 10:34:46;;;;;;;4.35;1.70;;;;;;;21.27;31.44;101183.44;5036118;28;20099;-80
2023/04/25 10:37:12;;;;;;;2.63;1.90;;;;;;;21.49;32.38;101205.63;5020740;28;20036;-84
2023/04/25 10:39:41;;;;;;;4.22;2.00;;;;;;;23.32;26.60;101189.56;5053543;28;20550;-78
2023/04/25 10:42:08;;;;;;;2.47;2.10;;;;;;;23.43;27.29;101205.09;5004755;28;20040;-84
2023/04/25 10:44:34;;;;;;;4.55;2.63;;;;;;;21.95;30.43;101203.09;5037219;28;20562;-80
2023/04/25 10:47:01;;;;;;;6.13;2.63;;;;;;;23.47;29.81;101201.59;5036251;28;20041;-79
2023/04/25 10:49:31;;;;;;;2.83;1.60;;;;;;;20.91;30.72;101200.06;5036634;28;20090;-85
2023/04/25 10:52:13;;;;;;;4.18;2.83;;;;;;;18.07;34.46;101187.72;5036790;28;20083;-84
2023/04/25 10:54:52;;;;;;;5.63;2.70;;;;;;;16.67;39.07;101193.19;5053706;28;20043;-81
2023/04/25 10:57:48;;;;;;;7.28;5.07;;;;;;;16.47;38.93;101189.59;5020057;28;20048;-84
2023/04/25 11:00:19;;;;;;;4.53;1.90;;;;;;;15.97;39.11;101180.81;5037082;28;20056;-83
2023/04/25 11:02:53;;;;;;;6.25;2.22;;;;;;;15.55;39.79;101188.06;5037588;28;20045;-76
2023/04/25 11:05:23;;;;;;;3.45;2.00;;;;;;;15.29;40.78;101186.81;5036169;28;20048;-77
2023/04/25 11:07:56;;;;;;;3.10;2.10;;;;;;;14.92;41.32;101193.38;5035432;28;20061;-81
2023/04/25 11:10:30;;;;;;;5.70;2.72;;;;;;;15.13;42.70;101185.22;5036730;28;20041;-80
2023/04/25 11:13:04;;;;;;;4.65;2.25;;;;;;;16.48;41.12;101174.97;5053141;28;20032;-79
2023/04/25 11:15:33;;;;;;;2.38;1.88;;;;;;;17.43;38.60;101172.97;5052438;28;20449;-78
2023/04/25 11:17:59;;;;;;;2.72;2.20;;;;;;;16.44;40.06;101181.84;5036689;28;20029;-78
2023/04/25 11:20:26;;;;;;;3.85;1.90;;;;;;;15.78;40.41;101180.50;5035843;28;20534;-81
2023/04/25 11:22:51;;;;;;;4.47;2.30;;;;;;;15.05;42.64;101169.13;5035901;28;20044;-76